createdAt,value
2023-02-26T00:01:32.994Z,5.80
2023-02-26T00:04:03.421Z,5.80
2023-02-26T00:06:34.574Z,5.80
2023-02-26T00:09:02.800Z,5.80
2023-02-26T00:11:30.676Z,5.70
2023-02-26T00:13:58.172Z,5.70
2023-02-26T00:16:32.596Z,5.60
2023-02-26T00:19:03.076Z,5.60
2023-02-26T00:21:31.324Z,5.60
2023-02-26T00:23:58.914Z,5.50
2023-02-26T00:26:28.406Z,5.50
2023-02-26T00:28:57.055Z,5.40
2023-02-26T00:31:25.469Z,5.40
2023-02-26T00:33:57.720Z,5.40
2023-02-26T00:36:59.642Z,5.40
2023-02-26T00:39:57.615Z,5.40
2023-02-26T00:42:25.091Z,5.40
2023-02-26T00:44:52.825Z,5.40
2023-02-26T00:47:33.988Z,5.40
2023-02-26T00:50:18.235Z,5.40
2023-02-26T00:53:05.284Z,5.40
2023-02-26T00:55:32.597Z,5.30
2023-02-26T00:57:59.908Z,5.20
2023-02-26T01:00:27.475Z,5.20
2023-02-26T01:02:54.983Z,5.20
2023-02-26T01:05:22.503Z,5.20
2023-02-26T01:08:17.423Z,5.10
2023-02-26T01:10:44.864Z,5.10
2023-02-26T01:13:12.585Z,5.10
2023-02-26T01:15:45.086Z,5.00
2023-02-26T01:18:22.825Z,5.00
2023-02-26T01:20:57.405Z,5.00
2023-02-26T01:23:27.270Z,5.00
2023-02-26T01:25:59.592Z,5.10
2023-02-26T01:28:28.325Z,5.10
2023-02-26T01:31:01.240Z,5.20
2023-02-26T01:33:35.863Z,5.20
2023-02-26T01:36:17.487Z,5.20
2023-02-26T01:39:08.416Z,5.20
2023-02-26T01:41:58.644Z,5.30
2023-02-26T01:44:39.960Z,5.30
2023-02-26T01:47:30.851Z,5.40
2023-02-26T01:50:05.847Z,5.40
2023-02-26T01:53:12.835Z,5.40
2023-02-26T01:55:44.936Z,5.40
2023-02-26T01:58:12.925Z,5.30
2023-02-26T02:00:40.246Z,5.30
2023-02-26T02:03:07.933Z,5.30
2023-02-26T02:05:44.357Z,5.30
2023-02-26T02:08:12.958Z,5.20
2023-02-26T02:10:46.468Z,5.10
2023-02-26T02:13:30.071Z,5.10
2023-02-26T02:16:24.844Z,5.00
2023-02-26T02:19:31.982Z,5.00
2023-02-26T02:22:34.061Z,4.90
2023-02-26T02:25:41.071Z,4.90
2023-02-26T02:28:48.200Z,4.80
2023-02-26T02:31:25.837Z,4.70
2023-02-26T02:34:10.081Z,4.60
2023-02-26T02:36:49.219Z,4.70
2023-02-26T02:39:56.249Z,4.60
2023-02-26T02:42:51.069Z,4.60
2023-02-26T02:45:26.976Z,4.50
2023-02-26T02:47:59.341Z,4.50
2023-02-26T02:50:34.181Z,4.50
2023-02-26T02:53:14.193Z,4.40
2023-02-26T02:55:50.324Z,4.50
2023-02-26T02:58:20.862Z,4.50
2023-02-26T03:00:53.024Z,4.50
2023-02-26T03:03:50.553Z,4.40
2023-02-26T03:06:18.090Z,4.40
2023-02-26T03:08:47.431Z,4.40
2023-02-26T03:11:16.918Z,4.40
2023-02-26T03:13:47.833Z,4.30
2023-02-26T03:16:50.213Z,4.30
2023-02-26T03:19:49.799Z,4.30
2023-02-26T03:22:35.647Z,4.30
2023-02-26T03:25:13.596Z,4.30
2023-02-26T03:27:55.450Z,4.30
2023-02-26T03:30:34.757Z,4.20
2023-02-26T03:33:26.368Z,4.30
2023-02-26T03:36:24.775Z,4.20
2023-02-26T03:39:13.050Z,4.20
2023-02-26T03:41:45.833Z,4.10
2023-02-26T03:44:17.560Z,4.10
2023-02-26T03:46:50.749Z,4.10
2023-02-26T03:49:27.728Z,4.10
2023-02-26T03:51:55.949Z,4.10
2023-02-26T03:54:50.901Z,4.10
2023-02-26T03:57:38.489Z,4.10
2023-02-26T04:00:27.943Z,4.00
2023-02-26T04:03:02.239Z,4.00
2023-02-26T04:05:36.147Z,4.00
2023-02-26T04:08:03.590Z,4.00
2023-02-26T04:10:45.436Z,4.00
2023-02-26T04:13:13.656Z,3.90
2023-02-26T04:15:40.850Z,3.90
2023-02-26T04:18:08.073Z,3.90
2023-02-26T04:20:35.480Z,3.80
2023-02-26T04:23:02.758Z,3.90
2023-02-26T04:25:30.846Z,3.90
2023-02-26T04:27:59.948Z,3.90
2023-02-26T04:30:27.971Z,3.90
2023-02-26T04:32:56.024Z,3.80
2023-02-26T04:35:23.274Z,3.80
2023-02-26T04:37:50.739Z,3.70
2023-02-26T04:40:17.995Z,3.70
2023-02-26T04:42:47.325Z,3.70
2023-02-26T04:45:20.792Z,3.70
2023-02-26T04:47:48.204Z,3.70
2023-02-26T04:50:15.516Z,3.70
2023-02-26T04:52:45.723Z,3.70
2023-02-26T04:55:13.031Z,3.70
2023-02-26T04:57:41.452Z,3.70
2023-02-26T05:00:11.330Z,3.70
2023-02-26T05:02:41.238Z,3.70
2023-02-26T05:05:08.908Z,3.60
2023-02-26T05:07:36.171Z,3.60
2023-02-26T05:10:04.290Z,3.60
2023-02-26T05:12:31.572Z,3.50
2023-02-26T05:14:58.741Z,3.50
2023-02-26T05:17:26.029Z,3.60
2023-02-26T05:19:54.500Z,3.50
2023-02-26T05:22:21.840Z,3.50
2023-02-26T05:24:49.040Z,3.50
2023-02-26T05:27:16.773Z,3.50
2023-02-26T05:29:46.951Z,3.50
2023-02-26T05:32:15.293Z,3.50
2023-02-26T05:34:43.808Z,3.40
2023-02-26T05:37:11.141Z,3.40
2023-02-26T05:39:38.410Z,3.50
2023-02-26T05:42:06.220Z,3.40
2023-02-26T05:44:33.429Z,3.40
2023-02-26T05:47:00.684Z,3.40
2023-02-26T05:49:28.039Z,3.40
2023-02-26T05:51:55.288Z,3.30
2023-02-26T05:54:22.680Z,3.30
2023-02-26T05:56:50.038Z,3.30
2023-02-26T05:59:17.553Z,3.30
2023-02-26T06:01:44.883Z,3.40
2023-02-26T06:04:11.973Z,3.30
2023-02-26T06:06:39.328Z,3.30
2023-02-26T06:09:06.631Z,3.20
2023-02-26T06:11:34.264Z,3.20
2023-02-26T06:14:01.950Z,3.20
2023-02-26T06:16:29.524Z,3.20
2023-02-26T06:18:56.725Z,3.20
2023-02-26T06:21:23.906Z,3.20
2023-02-26T06:23:51.087Z,3.10
2023-02-26T06:26:18.314Z,3.10
2023-02-26T06:28:45.479Z,3.10
2023-02-26T06:31:12.803Z,3.10
2023-02-26T06:33:39.961Z,3.10
2023-02-26T06:36:08.379Z,3.10
2023-02-26T06:38:35.742Z,3.00
2023-02-26T06:41:02.983Z,3.00
2023-02-26T06:43:30.112Z,3.00
2023-02-26T06:45:59.277Z,3.00
2023-02-26T06:48:27.480Z,2.90
2023-02-26T06:50:54.952Z,2.90
2023-02-26T06:53:22.265Z,2.80
2023-02-26T06:55:52.565Z,2.90
2023-02-26T06:58:20.742Z,2.80
2023-02-26T07:00:48.477Z,2.90
2023-02-26T07:03:17.171Z,2.90
2023-02-26T07:05:46.143Z,2.90
2023-02-26T07:08:14.254Z,2.90
2023-02-26T07:10:42.607Z,2.80
2023-02-26T07:13:09.880Z,2.80
2023-02-26T07:15:37.263Z,2.90
2023-02-26T07:18:04.596Z,2.80
2023-02-26T07:20:32.839Z,2.80
2023-02-26T07:23:00.138Z,2.80
2023-02-26T07:25:27.689Z,2.80
2023-02-26T07:27:55.072Z,2.80
2023-02-26T07:30:22.455Z,2.80
2023-02-26T07:32:49.611Z,2.90
2023-02-26T07:35:16.820Z,2.90
2023-02-26T07:37:44.182Z,2.90
2023-02-26T07:40:12.345Z,2.90
2023-02-26T07:42:39.757Z,3.00
2023-02-26T07:45:08.370Z,3.00
2023-02-26T07:47:35.675Z,3.10
2023-02-26T07:50:03.190Z,3.20
2023-02-26T07:52:30.447Z,3.20
2023-02-26T07:54:57.656Z,3.20
2023-02-26T07:57:24.793Z,3.30
2023-02-26T07:59:52.056Z,3.40
2023-02-26T08:02:19.298Z,3.50
2023-02-26T08:04:46.505Z,3.50
2023-02-26T08:07:13.635Z,3.60
2023-02-26T08:09:41.000Z,3.70
2023-02-26T08:12:08.084Z,3.90
2023-02-26T08:14:35.326Z,4.00
2023-02-26T08:17:02.473Z,4.20
2023-02-26T08:19:29.735Z,4.40
2023-02-26T08:21:57.054Z,4.60
2023-02-26T08:24:24.243Z,4.60
2023-02-26T08:26:51.788Z,4.80
2023-02-26T08:29:19.295Z,4.90
2023-02-26T08:31:46.945Z,5.00
2023-02-26T08:34:14.539Z,5.10
2023-02-26T08:36:42.045Z,5.20
2023-02-26T08:39:09.324Z,5.20
2023-02-26T08:41:36.734Z,5.40
2023-02-26T08:44:04.542Z,5.50
2023-02-26T08:46:31.715Z,5.80
2023-02-26T08:48:58.972Z,6.00
2023-02-26T08:51:26.628Z,6.10
2023-02-26T08:53:54.024Z,6.10
2023-02-26T08:56:21.499Z,6.10
2023-02-26T08:58:48.787Z,6.20
2023-02-26T09:01:16.027Z,6.30
2023-02-26T09:03:44.112Z,6.40
2023-02-26T09:06:11.435Z,6.50
2023-02-26T09:08:38.658Z,6.70
2023-02-26T09:11:05.976Z,6.80
2023-02-26T09:13:33.288Z,6.80
2023-02-26T09:16:00.450Z,7.00
2023-02-26T09:18:28.074Z,7.10
2023-02-26T09:20:55.298Z,7.30
2023-02-26T09:23:22.689Z,7.40
2023-02-26T09:26:10.218Z,7.50
2023-02-26T09:28:37.529Z,7.60
2023-02-26T09:31:07.402Z,7.60
2023-02-26T09:33:36.074Z,7.60
2023-02-26T09:36:03.448Z,7.60
2023-02-26T09:38:30.696Z,7.60
2023-02-26T09:41:09.116Z,7.80
2023-02-26T09:43:57.983Z,7.90
2023-02-26T09:46:48.823Z,8.00
2023-02-26T09:49:40.616Z,8.00
2023-02-26T09:52:47.658Z,8.20
2023-02-26T09:55:21.748Z,8.50
2023-02-26T09:57:52.538Z,8.60
2023-02-26T10:00:59.472Z,8.60
2023-02-26T10:03:58.611Z,8.70
2023-02-26T10:06:32.803Z,8.80
2023-02-26T10:09:30.711Z,8.70
2023-02-26T10:12:05.712Z,8.60
2023-02-26T10:14:43.261Z,8.50
2023-02-26T10:17:38.072Z,8.80
2023-02-26T10:20:14.468Z,8.90
2023-02-26T10:22:55.342Z,9.10
2023-02-26T10:25:29.473Z,9.00
2023-02-26T10:28:06.362Z,9.00
2023-02-26T10:30:59.279Z,9.10
2023-02-26T10:33:43.852Z,9.00
2023-02-26T10:36:30.984Z,9.10
2023-02-26T10:39:32.931Z,9.10
2023-02-26T10:42:13.615Z,9.10
2023-02-26T10:44:55.255Z,9.20
2023-02-26T10:47:49.772Z,9.20
2023-02-26T10:50:20.645Z,9.20
2023-02-26T10:52:49.476Z,9.20
2023-02-26T10:55:41.875Z,9.30
2023-02-26T10:58:18.435Z,9.20
2023-02-26T11:00:53.846Z,9.40
2023-02-26T11:03:38.004Z,9.40
2023-02-26T11:06:06.781Z,9.40
2023-02-26T11:08:39.498Z,9.50
2023-02-26T11:11:07.714Z,9.50
2023-02-26T11:13:37.460Z,9.50
2023-02-26T11:16:12.433Z,9.50
2023-02-26T11:18:50.733Z,9.50
2023-02-26T11:21:25.566Z,9.60
2023-02-26T11:24:01.778Z,9.60
2023-02-26T11:26:34.772Z,9.60
2023-02-26T11:29:02.309Z,9.70
2023-02-26T11:31:31.453Z,9.80
2023-02-26T11:34:09.035Z,10.00
2023-02-26T11:36:40.146Z,9.70
2023-02-26T11:39:14.430Z,9.70
2023-02-26T11:41:42.685Z,9.60
2023-02-26T11:44:15.534Z,9.60
2023-02-26T11:46:47.268Z,9.50
2023-02-26T11:49:17.554Z,9.30
2023-02-26T11:52:01.298Z,9.30
2023-02-26T11:54:29.473Z,9.40
2023-02-26T11:57:04.243Z,9.40
2023-02-26T11:59:33.468Z,9.50
2023-02-26T12:02:14.217Z,9.50
2023-02-26T12:04:48.140Z,9.60
2023-02-26T12:07:16.900Z,9.60
2023-02-26T12:09:45.164Z,9.50
2023-02-26T12:12:46.742Z,9.60
2023-02-26T12:15:49.869Z,9.60
2023-02-26T12:18:42.419Z,9.60
2023-02-26T12:21:36.069Z,9.80
2023-02-26T12:24:33.779Z,9.80
2023-02-26T12:27:31.927Z,9.60
2023-02-26T12:30:39.038Z,9.50
2023-02-26T12:33:22.088Z,9.50
2023-02-26T12:36:21.978Z,9.50
2023-02-26T12:39:29.013Z,9.50
2023-02-26T12:42:26.135Z,9.50
2023-02-26T12:45:22.568Z,9.60
2023-02-26T12:48:29.724Z,9.50
2023-02-26T12:51:36.996Z,9.50
2023-02-26T12:54:22.883Z,9.40
2023-02-26T12:57:30.026Z,9.50
2023-02-26T13:00:37.026Z,9.60
2023-02-26T13:03:36.416Z,9.50
2023-02-26T13:06:26.576Z,9.50
2023-02-26T13:09:25.361Z,9.40
2023-02-26T13:12:32.507Z,9.40
2023-02-26T13:15:28.649Z,9.50
2023-02-26T13:18:11.633Z,9.40
2023-02-26T13:20:44.859Z,9.30
2023-02-26T13:23:21.397Z,9.30
2023-02-26T13:25:56.305Z,9.30
2023-02-26T13:28:44.840Z,9.20
2023-02-26T13:31:21.288Z,9.10
2023-02-26T13:33:51.838Z,9.10
2023-02-26T13:36:22.547Z,9.10
2023-02-26T13:39:29.608Z,9.10
2023-02-26T13:42:26.964Z,9.00
2023-02-26T13:45:21.894Z,9.00
2023-02-26T13:48:02.637Z,9.00
2023-02-26T13:50:58.646Z,8.90
2023-02-26T13:53:48.856Z,8.90
2023-02-26T13:56:42.680Z,8.80
2023-02-26T13:59:36.430Z,8.80
2023-02-26T14:02:43.418Z,8.70
2023-02-26T14:05:34.808Z,8.80
2023-02-26T14:08:31.448Z,8.80
2023-02-26T14:11:26.362Z,8.60
2023-02-26T14:14:17.132Z,8.60
2023-02-26T14:16:54.240Z,8.60
2023-02-26T14:19:29.506Z,8.60
2023-02-26T14:22:18.405Z,8.40
2023-02-26T14:25:12.922Z,8.30
2023-02-26T14:27:41.239Z,8.40
2023-02-26T14:30:30.385Z,8.40
2023-02-26T14:33:15.971Z,8.50
2023-02-26T14:35:49.016Z,8.40
2023-02-26T14:38:37.989Z,8.30
2023-02-26T14:41:23.687Z,8.30
2023-02-26T14:44:06.656Z,8.30
2023-02-26T14:46:35.938Z,8.30
2023-02-26T14:49:04.149Z,8.20
2023-02-26T14:52:10.037Z,8.20
2023-02-26T14:55:00.412Z,8.10
2023-02-26T14:58:01.550Z,8.00
2023-02-26T15:00:34.303Z,8.10
2023-02-26T15:03:41.393Z,8.00
2023-02-26T15:06:31.422Z,8.00
2023-02-26T15:09:25.302Z,8.10
2023-02-26T15:12:13.013Z,8.00
2023-02-26T15:15:10.086Z,7.90
2023-02-26T15:18:04.159Z,7.90
2023-02-26T15:21:00.792Z,7.90
2023-02-26T15:23:49.138Z,7.80
2023-02-26T15:26:29.490Z,7.90
2023-02-26T15:28:58.666Z,7.70
2023-02-26T15:31:36.303Z,7.70
2023-02-26T15:34:04.278Z,7.60
2023-02-26T15:36:32.328Z,7.80
2023-02-26T15:39:01.772Z,7.80
2023-02-26T15:41:31.285Z,7.60
2023-02-26T15:44:05.404Z,7.70
2023-02-26T15:46:37.713Z,7.70
2023-02-26T15:49:24.224Z,7.70
2023-02-26T15:51:53.418Z,7.50
2023-02-26T15:54:23.905Z,7.40
2023-02-26T15:56:51.900Z,7.30
2023-02-26T15:59:25.138Z,7.30
2023-02-26T16:01:52.520Z,7.20
2023-02-26T16:04:22.227Z,7.40
2023-02-26T16:06:55.892Z,7.30
2023-02-26T16:09:31.834Z,7.20
2023-02-26T16:12:02.458Z,7.00
2023-02-26T16:14:44.024Z,6.90
2023-02-26T16:17:23.644Z,6.80
2023-02-26T16:19:52.895Z,6.90
2023-02-26T16:22:26.073Z,6.90
2023-02-26T16:25:16.550Z,6.90
2023-02-26T16:27:44.822Z,7.00
2023-02-26T16:30:22.781Z,6.90
2023-02-26T16:32:54.266Z,6.90
2023-02-26T16:35:24.433Z,6.80
2023-02-26T16:37:55.317Z,6.70
2023-02-26T16:40:34.668Z,6.60
2023-02-26T16:43:06.559Z,6.60
2023-02-26T16:45:50.828Z,6.50
2023-02-26T16:48:38.119Z,6.30
2023-02-26T16:51:12.597Z,6.20
2023-02-26T16:54:03.175Z,6.20
2023-02-26T16:56:34.121Z,6.20
2023-02-26T16:59:25.253Z,6.10
2023-02-26T17:02:01.085Z,6.10
2023-02-26T17:04:35.566Z,6.10
2023-02-26T17:07:14.926Z,6.10
2023-02-26T17:09:49.871Z,6.10
2023-02-26T17:12:21.552Z,6.10
2023-02-26T17:15:00.755Z,5.90
2023-02-26T17:17:28.199Z,5.80
2023-02-26T17:19:55.434Z,5.70
2023-02-26T17:22:29.111Z,5.60
2023-02-26T17:24:56.391Z,5.60
2023-02-26T17:27:36.471Z,5.60
2023-02-26T17:30:06.887Z,5.50
2023-02-26T17:32:36.174Z,5.50
2023-02-26T17:35:03.722Z,5.40
2023-02-26T17:37:35.229Z,5.40
2023-02-26T17:40:04.260Z,5.40
2023-02-26T17:42:31.377Z,5.30
2023-02-26T17:44:58.632Z,5.30
2023-02-26T17:47:26.946Z,5.30
2023-02-26T17:49:54.406Z,5.20
2023-02-26T17:52:21.533Z,5.10
2023-02-26T17:54:48.942Z,5.20
2023-02-26T17:57:20.005Z,5.10
2023-02-26T17:59:49.432Z,5.00
2023-02-26T18:02:28.365Z,4.90
2023-02-26T18:04:55.641Z,4.90
2023-02-26T18:07:24.150Z,4.90
2023-02-26T18:09:51.341Z,4.80
2023-02-26T18:12:22.229Z,4.90
2023-02-26T18:14:50.350Z,4.80
2023-02-26T18:17:26.227Z,4.80
2023-02-26T18:19:53.855Z,4.70
2023-02-26T18:22:25.280Z,4.70
2023-02-26T18:24:55.053Z,4.70
2023-02-26T18:27:24.594Z,4.80
2023-02-26T18:29:53.256Z,4.80
2023-02-26T18:32:23.814Z,4.80
2023-02-26T18:34:51.826Z,4.80
2023-02-26T18:37:22.462Z,4.70
2023-02-26T18:39:50.793Z,4.80
2023-02-26T18:42:25.186Z,4.80
2023-02-26T18:44:53.371Z,4.80
2023-02-26T18:47:22.327Z,4.80
2023-02-26T18:49:51.482Z,4.80
2023-02-26T18:52:18.873Z,4.80
2023-02-26T18:54:46.140Z,4.80
2023-02-26T18:57:13.589Z,4.90
2023-02-26T18:59:40.956Z,4.90
2023-02-26T19:02:11.993Z,5.00
2023-02-26T19:04:39.462Z,5.00
2023-02-26T19:07:07.688Z,5.00
2023-02-26T19:09:35.222Z,5.10
2023-02-26T19:12:02.791Z,5.00
2023-02-26T19:14:30.012Z,5.10
2023-02-26T19:16:57.171Z,5.00
2023-02-26T19:19:24.448Z,5.00
2023-02-26T19:21:51.804Z,4.90
2023-02-26T19:24:19.321Z,4.90
2023-02-26T19:26:47.411Z,4.90
2023-02-26T19:29:17.516Z,4.90
2023-02-26T19:31:45.496Z,4.80
2023-02-26T19:34:13.070Z,4.90
2023-02-26T19:36:43.461Z,4.90
2023-02-26T19:39:11.930Z,4.80
2023-02-26T19:41:39.095Z,4.70
2023-02-26T19:44:06.554Z,4.80
2023-02-26T19:46:33.775Z,4.70
2023-02-26T19:49:01.010Z,4.70
2023-02-26T19:51:28.708Z,4.60
2023-02-26T19:53:57.192Z,4.60
2023-02-26T19:56:24.875Z,4.60
2023-02-26T19:58:52.115Z,4.60
2023-02-26T20:01:19.405Z,4.50
2023-02-26T20:03:48.741Z,4.50
2023-02-26T20:06:16.258Z,4.40
2023-02-26T20:08:43.576Z,4.40
2023-02-26T20:11:10.844Z,4.30
2023-02-26T20:13:38.274Z,4.30
2023-02-26T20:16:08.390Z,4.30
2023-02-26T20:18:36.254Z,4.20
2023-02-26T20:21:09.906Z,4.20
2023-02-26T20:23:38.983Z,4.10
2023-02-26T20:26:12.883Z,4.00
2023-02-26T20:28:41.314Z,4.00
2023-02-26T20:31:09.035Z,4.00
2023-02-26T20:33:39.688Z,3.90
2023-02-26T20:36:08.809Z,3.90
2023-02-26T20:38:36.734Z,3.90
2023-02-26T20:41:05.467Z,3.80
2023-02-26T20:43:33.607Z,3.80
2023-02-26T20:46:02.031Z,3.70
2023-02-26T20:48:29.637Z,3.70
2023-02-26T20:51:01.257Z,3.60
2023-02-26T20:53:28.832Z,3.60
2023-02-26T20:55:57.473Z,3.50
2023-02-26T20:58:26.131Z,3.50
2023-02-26T21:00:58.197Z,3.50
2023-02-26T21:03:26.834Z,3.50
2023-02-26T21:05:54.813Z,3.50
2023-02-26T21:08:23.892Z,3.50
2023-02-26T21:10:52.348Z,3.50
2023-02-26T21:13:20.606Z,3.50
2023-02-26T21:15:50.429Z,3.50
2023-02-26T21:18:17.790Z,3.40
2023-02-26T21:20:45.132Z,3.40
2023-02-26T21:23:12.510Z,3.40
2023-02-26T21:25:40.202Z,3.30
2023-02-26T21:28:07.432Z,3.30
2023-02-26T21:30:34.759Z,3.30
2023-02-26T21:33:02.126Z,3.20
2023-02-26T21:35:30.383Z,3.20
2023-02-26T21:37:58.342Z,3.20
2023-02-26T21:40:26.493Z,3.10
2023-02-26T21:42:53.794Z,3.20
2023-02-26T21:45:21.022Z,3.10
2023-02-26T21:47:48.195Z,3.10
2023-02-26T21:50:15.330Z,3.10
2023-02-26T21:52:42.545Z,3.10
2023-02-26T21:55:10.262Z,3.10
2023-02-26T21:57:37.504Z,3.20
2023-02-26T22:00:10.082Z,3.10
2023-02-26T22:02:40.448Z,3.10
2023-02-26T22:05:07.789Z,3.10
2023-02-26T22:07:35.196Z,3.00
2023-02-26T22:10:03.872Z,3.10
2023-02-26T22:12:31.100Z,3.10
2023-02-26T22:14:58.352Z,3.10
2023-02-26T22:17:25.601Z,3.00
2023-02-26T22:19:52.700Z,3.00
2023-02-26T22:22:19.970Z,3.00
2023-02-26T22:24:47.078Z,3.00
2023-02-26T22:27:14.360Z,3.00
2023-02-26T22:29:41.522Z,3.10
2023-02-26T22:32:08.730Z,3.00
2023-02-26T22:34:37.012Z,3.00
2023-02-26T22:37:04.513Z,2.90
2023-02-26T22:39:33.447Z,3.00
2023-02-26T22:42:00.747Z,2.90
2023-02-26T22:44:28.027Z,3.00
2023-02-26T22:46:55.213Z,3.00
2023-02-26T22:49:22.719Z,3.00
2023-02-26T22:51:49.917Z,3.00
2023-02-26T22:54:17.106Z,2.90
2023-02-26T22:56:44.310Z,2.90
2023-02-26T22:59:11.501Z,2.90
2023-02-26T23:01:39.172Z,2.80
2023-02-26T23:04:06.508Z,2.80
2023-02-26T23:06:33.832Z,2.90
2023-02-26T23:09:00.918Z,2.90
2023-02-26T23:11:28.546Z,2.90
2023-02-26T23:13:56.025Z,2.90
2023-02-26T23:16:23.227Z,2.90
2023-02-26T23:18:50.368Z,2.90
2023-02-26T23:21:17.713Z,2.80
2023-02-26T23:23:44.873Z,2.80
2023-02-26T23:26:12.441Z,2.80
2023-02-26T23:28:39.703Z,2.80
2023-02-26T23:31:07.062Z,2.80
2023-02-26T23:33:34.303Z,2.70
2023-02-26T23:36:01.578Z,2.80
2023-02-26T23:38:28.771Z,2.80
2023-02-26T23:40:56.811Z,2.70
2023-02-26T23:43:24.082Z,2.70
2023-02-26T23:45:51.228Z,2.80
2023-02-26T23:48:18.428Z,2.70
2023-02-26T23:50:48.527Z,2.70
2023-02-26T23:53:15.801Z,2.80
2023-02-26T23:55:43.009Z,2.70
2023-02-26T23:58:10.456Z,2.70
